createdAt,value
2019-03-29T00:01:43.312Z,11.03
2019-03-29T00:04:11.910Z,11.04
2019-03-29T00:06:40.444Z,11.02
2019-03-29T00:09:09.004Z,11.06
2019-03-29T00:11:38.230Z,11.08
2019-03-29T00:14:07.515Z,10.95
2019-03-29T00:16:36.056Z,10.89
2019-03-29T00:19:04.622Z,10.94
2019-03-29T00:21:34.019Z,11.03
2019-03-29T00:24:06.894Z,11.08
2019-03-29T00:26:33.039Z,11.12
2019-03-29T00:29:03.097Z,11.14
2019-03-29T00:31:31.702Z,11.14
2019-03-29T00:34:00.242Z,11.21
2019-03-29T00:36:31.617Z,11.21
2019-03-29T00:39:00.180Z,11.17
2019-03-29T00:41:28.749Z,11.15
2019-03-29T00:43:57.272Z,11.18
2019-03-29T00:46:25.848Z,11.15
2019-03-29T00:48:54.417Z,11.17
2019-03-29T00:51:22.993Z,11.12
2019-03-29T00:53:51.564Z,11.13
2019-03-29T00:56:20.118Z,11.08
2019-03-29T00:58:48.874Z,11.03
2019-03-29T01:01:17.647Z,10.86
2019-03-29T01:03:46.253Z,10.89
2019-03-29T01:06:15.209Z,10.91
2019-03-29T01:08:43.791Z,10.94
2019-03-29T01:11:12.343Z,10.95
2019-03-29T01:13:40.870Z,11.07
2019-03-29T01:16:09.429Z,11.03
2019-03-29T01:18:38.285Z,11.07
2019-03-29T01:21:06.869Z,11.09
2019-03-29T01:23:35.432Z,11.06
2019-03-29T01:26:03.974Z,10.95
2019-03-29T01:28:32.512Z,10.93
2019-03-29T01:31:01.081Z,10.93
2019-03-29T01:33:29.627Z,10.94
2019-03-29T01:35:58.189Z,10.98
2019-03-29T01:38:26.711Z,11.05
2019-03-29T01:40:55.274Z,11.04
2019-03-29T01:43:23.811Z,10.79
2019-03-29T01:45:52.350Z,10.85
2019-03-29T01:48:20.923Z,10.92
2019-03-29T01:50:49.456Z,10.98
2019-03-29T01:53:18.025Z,11.03
2019-03-29T01:55:46.586Z,10.96
2019-03-29T01:58:15.256Z,10.81
2019-03-29T02:00:43.920Z,10.81
2019-03-29T02:03:13.164Z,10.88
2019-03-29T02:05:41.879Z,10.95
2019-03-29T02:08:10.446Z,10.98
2019-03-29T02:10:38.987Z,10.99
2019-03-29T02:13:07.563Z,11.00
2019-03-29T02:15:36.100Z,11.03
2019-03-29T02:18:04.859Z,11.02
2019-03-29T02:20:33.506Z,10.77
2019-03-29T02:23:02.118Z,10.75
2019-03-29T02:25:30.629Z,10.59
2019-03-29T02:27:59.249Z,10.58
2019-03-29T02:30:27.793Z,10.57
2019-03-29T02:32:56.364Z,10.71
2019-03-29T02:35:24.870Z,10.78
2019-03-29T02:37:53.411Z,10.88
2019-03-29T02:40:22.810Z,10.98
2019-03-29T02:42:51.718Z,11.02
2019-03-29T02:45:20.236Z,11.01
2019-03-29T02:47:49.172Z,10.98
2019-03-29T02:50:17.757Z,10.96
2019-03-29T02:52:46.321Z,10.98
2019-03-29T02:55:14.877Z,10.99
2019-03-29T02:57:43.433Z,11.01
2019-03-29T03:00:12.935Z,11.00
2019-03-29T03:02:41.512Z,10.99
2019-03-29T03:05:10.400Z,10.95
2019-03-29T03:07:39.000Z,10.92
2019-03-29T03:10:08.781Z,10.92
2019-03-29T03:12:37.401Z,10.92
2019-03-29T03:15:08.208Z,10.93
2019-03-29T03:17:36.935Z,10.94
2019-03-29T03:20:08.057Z,10.92
2019-03-29T03:22:36.683Z,10.91
2019-03-29T03:25:06.087Z,10.90
2019-03-29T03:27:34.688Z,10.89
2019-03-29T03:30:03.703Z,10.91
2019-03-29T03:32:32.244Z,10.87
2019-03-29T03:35:00.978Z,10.88
2019-03-29T03:37:29.559Z,10.87
2019-03-29T03:39:58.096Z,10.90
2019-03-29T03:42:26.843Z,10.89
2019-03-29T03:44:55.402Z,10.92
2019-03-29T03:47:23.934Z,10.92
2019-03-29T03:49:52.498Z,10.91
2019-03-29T03:52:21.156Z,10.90
2019-03-29T03:54:49.734Z,10.89
2019-03-29T03:57:19.461Z,10.88
2019-03-29T03:59:49.242Z,10.82
2019-03-29T04:02:17.775Z,10.83
2019-03-29T04:04:46.356Z,10.84
2019-03-29T04:07:14.880Z,10.64
2019-03-29T04:09:49.751Z,10.75
2019-03-29T04:12:13.870Z,10.76
2019-03-29T04:14:42.453Z,10.77
2019-03-29T04:17:10.990Z,10.78
2019-03-29T04:19:39.522Z,10.78
2019-03-29T04:22:08.066Z,10.87
2019-03-29T04:24:36.644Z,10.88
2019-03-29T04:27:05.220Z,10.86
2019-03-29T04:29:33.804Z,10.89
2019-03-29T04:32:02.363Z,10.87
2019-03-29T04:34:30.920Z,10.84
2019-03-29T04:36:59.474Z,10.83
2019-03-29T04:39:28.051Z,10.87
2019-03-29T04:41:56.604Z,10.80
2019-03-29T04:44:25.162Z,10.81
2019-03-29T04:46:53.733Z,10.79
2019-03-29T04:49:22.333Z,10.81
2019-03-29T04:51:51.191Z,10.74
2019-03-29T04:54:19.791Z,10.70
2019-03-29T04:56:48.339Z,10.78
2019-03-29T04:59:16.865Z,10.84
2019-03-29T05:01:45.428Z,10.81
2019-03-29T05:04:13.996Z,10.79
2019-03-29T05:06:42.557Z,10.80
2019-03-29T05:09:11.100Z,10.74
2019-03-29T05:11:39.644Z,10.75
2019-03-29T05:14:08.202Z,10.75
2019-03-29T05:16:36.779Z,10.74
2019-03-29T05:19:05.324Z,10.74
2019-03-29T05:21:33.914Z,10.44
2019-03-29T05:24:02.451Z,10.50
2019-03-29T05:26:31.040Z,10.64
2019-03-29T05:28:59.577Z,10.75
2019-03-29T05:31:28.187Z,10.78
2019-03-29T05:33:56.728Z,10.77
2019-03-29T05:36:25.287Z,10.77
2019-03-29T05:38:53.829Z,10.70
2019-03-29T05:41:22.392Z,10.85
2019-03-29T05:43:50.936Z,10.94
2019-03-29T05:46:19.511Z,10.97
2019-03-29T05:48:48.042Z,11.03
2019-03-29T05:51:16.604Z,11.16
2019-03-29T05:53:45.158Z,11.13
2019-03-29T05:56:13.736Z,11.14
2019-03-29T05:58:42.312Z,11.18
2019-03-29T06:01:10.875Z,11.03
2019-03-29T06:03:39.425Z,11.14
2019-03-29T06:06:07.984Z,11.16
2019-03-29T06:08:36.527Z,11.15
2019-03-29T06:11:05.126Z,11.25
2019-03-29T06:13:33.676Z,11.23
2019-03-29T06:16:02.230Z,11.25
2019-03-29T06:18:30.829Z,11.31
2019-03-29T06:20:59.371Z,11.33
2019-03-29T06:23:27.951Z,11.40
2019-03-29T06:25:56.520Z,11.25
2019-03-29T06:28:25.130Z,11.11
2019-03-29T06:30:53.676Z,11.29
2019-03-29T06:33:22.237Z,11.35
2019-03-29T06:35:53.246Z,11.45
2019-03-29T06:38:24.451Z,11.55
2019-03-29T06:41:02.908Z,11.53
2019-03-29T06:43:23.438Z,11.49
2019-03-29T06:45:52.041Z,11.45
2019-03-29T06:48:20.606Z,11.57
2019-03-29T06:50:49.275Z,11.57
2019-03-29T06:53:17.934Z,11.63
2019-03-29T06:55:46.503Z,11.60
2019-03-29T06:58:15.085Z,11.71
2019-03-29T07:00:46.517Z,11.79
2019-03-29T07:03:14.099Z,11.85
2019-03-29T07:05:42.652Z,11.92
2019-03-29T07:08:11.238Z,12.02
2019-03-29T07:10:39.776Z,12.09
2019-03-29T07:13:08.357Z,12.19
2019-03-29T07:15:36.919Z,12.31
2019-03-29T07:18:05.459Z,12.34
2019-03-29T07:20:34.041Z,12.40
2019-03-29T07:23:02.623Z,12.45
2019-03-29T07:25:31.189Z,12.54
2019-03-29T07:27:59.746Z,12.69
2019-03-29T07:30:28.338Z,12.57
2019-03-29T07:32:56.912Z,12.55
2019-03-29T07:35:25.446Z,12.70
2019-03-29T07:37:53.992Z,12.66
2019-03-29T07:40:22.582Z,12.61
2019-03-29T07:42:51.122Z,12.64
2019-03-29T07:45:19.713Z,12.79
2019-03-29T07:47:48.306Z,12.79
2019-03-29T07:50:19.122Z,12.83
2019-03-29T07:52:47.344Z,12.96
2019-03-29T07:55:15.898Z,13.08
2019-03-29T07:57:44.448Z,13.12
2019-03-29T08:00:13.390Z,13.22
2019-03-29T08:02:41.894Z,13.27
2019-03-29T08:05:10.606Z,13.40
2019-03-29T08:07:39.150Z,13.51
2019-03-29T08:10:07.849Z,13.63
2019-03-29T08:12:36.445Z,13.72
2019-03-29T08:15:05.412Z,13.86
2019-03-29T08:17:34.020Z,13.99
2019-03-29T08:20:36.437Z,13.87
2019-03-29T08:22:33.306Z,14.02
2019-03-29T08:25:02.051Z,14.01
2019-03-29T08:27:30.651Z,14.14
2019-03-29T08:30:00.405Z,14.11
2019-03-29T08:32:28.999Z,14.14
2019-03-29T08:34:57.664Z,14.33
2019-03-29T08:37:26.207Z,14.32
2019-03-29T08:39:56.640Z,14.47
2019-03-29T08:42:25.411Z,14.61
2019-03-29T08:44:53.876Z,14.72
2019-03-29T08:47:22.851Z,14.80
2019-03-29T08:49:51.505Z,14.76
2019-03-29T08:52:21.845Z,14.74
2019-03-29T08:54:51.304Z,14.81
2019-03-29T08:57:20.248Z,14.90
2019-03-29T08:59:48.885Z,14.84
2019-03-29T09:02:17.751Z,14.96
2019-03-29T09:04:46.344Z,15.15
2019-03-29T09:07:14.929Z,15.22
2019-03-29T09:09:46.382Z,15.26
2019-03-29T09:12:15.103Z,15.25
2019-03-29T09:14:43.783Z,15.15
2019-03-29T09:17:12.362Z,15.22
2019-03-29T09:19:40.994Z,15.29
2019-03-29T09:22:09.628Z,15.37
2019-03-29T09:24:38.176Z,15.67
2019-03-29T09:27:06.773Z,15.70
2019-03-29T09:29:35.319Z,15.73
2019-03-29T09:32:03.876Z,15.72
2019-03-29T09:34:32.507Z,15.88
2019-03-29T09:37:01.168Z,15.98
2019-03-29T09:39:29.728Z,16.09
2019-03-29T09:41:58.445Z,16.00
2019-03-29T09:44:26.992Z,15.91
2019-03-29T09:46:55.586Z,15.74
2019-03-29T09:49:24.233Z,15.70
2019-03-29T09:51:52.848Z,15.71
2019-03-29T09:54:21.458Z,15.58
2019-03-29T09:56:50.116Z,15.46
2019-03-29T09:59:18.707Z,15.40
2019-03-29T10:01:47.292Z,15.34
2019-03-29T10:04:15.927Z,15.27
2019-03-29T10:06:44.479Z,15.07
2019-03-29T10:09:13.068Z,15.26
2019-03-29T10:11:41.644Z,15.11
2019-03-29T10:14:10.262Z,14.99
2019-03-29T10:16:38.862Z,15.07
2019-03-29T10:19:07.463Z,15.12
2019-03-29T10:21:36.032Z,15.22
2019-03-29T10:24:04.589Z,15.33
2019-03-29T10:26:33.165Z,15.21
2019-03-29T10:29:01.764Z,15.03
2019-03-29T10:31:32.366Z,15.14
2019-03-29T10:34:01.093Z,15.25
2019-03-29T10:36:29.660Z,15.40
2019-03-29T10:38:58.239Z,15.55
2019-03-29T10:41:26.808Z,15.60
2019-03-29T10:43:55.366Z,15.48
2019-03-29T10:46:23.953Z,15.59
2019-03-29T10:48:52.509Z,15.87
2019-03-29T10:51:21.079Z,16.07
2019-03-29T10:53:49.662Z,15.93
2019-03-29T10:56:18.209Z,15.87
2019-03-29T10:58:46.776Z,15.98
2019-03-29T11:01:15.358Z,16.06
2019-03-29T11:03:44.037Z,16.36
2019-03-29T11:06:12.928Z,16.58
2019-03-29T11:08:43.595Z,16.56
2019-03-29T11:11:12.035Z,16.89
2019-03-29T11:13:41.128Z,17.18
2019-03-29T11:16:10.825Z,17.72
2019-03-29T11:18:39.408Z,18.59
2019-03-29T11:21:07.988Z,19.61
2019-03-29T11:23:36.571Z,20.24
2019-03-29T11:26:05.123Z,19.69
2019-03-29T11:28:33.702Z,19.65
2019-03-29T11:31:02.277Z,19.65
2019-03-29T11:33:30.838Z,19.45
2019-03-29T11:35:59.465Z,19.17
2019-03-29T11:38:28.016Z,18.97
2019-03-29T11:40:57.370Z,18.85
2019-03-29T11:43:27.423Z,18.77
2019-03-29T11:45:56.178Z,18.63
2019-03-29T11:48:25.602Z,18.26
2019-03-29T11:50:54.224Z,17.98
2019-03-29T11:53:22.830Z,18.64
2019-03-29T11:55:52.264Z,19.24
2019-03-29T11:58:20.846Z,19.43
2019-03-29T12:00:49.438Z,19.82
2019-03-29T12:03:18.217Z,19.45
2019-03-29T12:05:46.936Z,19.20
2019-03-29T12:08:15.509Z,19.27
2019-03-29T12:10:44.093Z,19.02
2019-03-29T12:13:12.772Z,19.17
2019-03-29T12:15:41.317Z,18.89
2019-03-29T12:18:09.877Z,19.30
2019-03-29T12:20:38.437Z,19.34
2019-03-29T12:23:07.033Z,19.53
2019-03-29T12:25:35.578Z,20.86
2019-03-29T12:28:04.661Z,26.51
2019-03-29T12:30:33.529Z,32.58
2019-03-29T12:33:02.118Z,35.81
2019-03-29T12:35:30.739Z,38.30
2019-03-29T12:37:59.313Z,39.65
2019-03-29T12:40:27.905Z,39.44
2019-03-29T12:42:56.721Z,40.76
2019-03-29T12:45:25.345Z,40.31
2019-03-29T12:47:53.927Z,39.78
2019-03-29T12:50:22.492Z,39.68
2019-03-29T12:52:51.086Z,39.20
2019-03-29T12:55:19.705Z,40.76
2019-03-29T12:57:48.297Z,38.97
2019-03-29T13:00:17.515Z,38.33
2019-03-29T13:02:46.098Z,39.43
2019-03-29T13:05:14.789Z,41.56
2019-03-29T13:07:43.456Z,41.74
2019-03-29T13:10:12.724Z,41.63
2019-03-29T13:12:41.378Z,42.03
2019-03-29T13:15:10.315Z,41.89
2019-03-29T13:17:38.956Z,41.39
2019-03-29T13:20:08.084Z,40.38
2019-03-29T13:22:36.668Z,39.38
2019-03-29T13:25:07.546Z,39.19
2019-03-29T13:27:36.202Z,39.47
2019-03-29T13:30:06.693Z,33.09
2019-03-29T13:32:35.243Z,36.01
2019-03-29T13:35:04.766Z,36.17
2019-03-29T13:37:33.360Z,36.07
2019-03-29T13:40:01.990Z,36.97
2019-03-29T13:42:30.583Z,35.71
2019-03-29T13:44:59.157Z,36.24
2019-03-29T13:47:27.746Z,37.24
2019-03-29T13:49:56.347Z,36.69
2019-03-29T13:52:24.954Z,38.26
2019-03-29T13:54:53.491Z,37.12
2019-03-29T13:57:22.082Z,37.13
2019-03-29T13:59:50.706Z,35.10
2019-03-29T14:02:19.325Z,35.91
2019-03-29T14:04:47.909Z,37.44
2019-03-29T14:07:16.494Z,37.69
2019-03-29T14:09:45.074Z,37.41
2019-03-29T14:12:13.710Z,36.30
2019-03-29T14:14:42.314Z,35.54
2019-03-29T14:17:10.904Z,34.82
2019-03-29T14:19:39.597Z,35.35
2019-03-29T14:22:08.186Z,35.77
2019-03-29T14:24:36.731Z,35.15
2019-03-29T14:27:05.325Z,34.24
2019-03-29T14:29:33.954Z,35.32
2019-03-29T14:32:02.550Z,36.05
2019-03-29T14:34:31.127Z,35.94
2019-03-29T14:36:59.947Z,36.18
2019-03-29T14:39:28.750Z,35.29
2019-03-29T14:41:57.731Z,33.54
2019-03-29T14:44:26.290Z,32.67
2019-03-29T14:46:54.886Z,31.94
2019-03-29T14:49:23.465Z,31.09
2019-03-29T14:51:52.019Z,29.63
2019-03-29T14:54:20.599Z,28.20
2019-03-29T14:56:49.154Z,26.79
2019-03-29T14:59:17.868Z,24.90
2019-03-29T15:01:46.426Z,23.71
2019-03-29T15:04:15.047Z,22.50
2019-03-29T15:06:43.647Z,21.74
2019-03-29T15:09:12.227Z,21.03
2019-03-29T15:11:40.790Z,20.36
2019-03-29T15:14:09.377Z,19.67
2019-03-29T15:16:37.945Z,19.08
2019-03-29T15:19:06.546Z,18.75
2019-03-29T15:21:35.091Z,18.69
2019-03-29T15:24:03.656Z,18.20
2019-03-29T15:26:32.219Z,17.89
2019-03-29T15:29:00.849Z,17.47
2019-03-29T15:31:29.409Z,17.28
2019-03-29T15:33:57.991Z,17.06
2019-03-29T15:36:26.552Z,16.90
2019-03-29T15:38:55.132Z,16.91
2019-03-29T15:41:23.679Z,17.04
2019-03-29T15:43:52.253Z,16.69
2019-03-29T15:46:20.822Z,16.44
2019-03-29T15:48:49.379Z,16.13
2019-03-29T15:51:17.981Z,15.95
2019-03-29T15:53:46.534Z,15.76
2019-03-29T15:56:15.091Z,15.82
2019-03-29T15:58:43.663Z,16.32
2019-03-29T16:01:12.240Z,16.07
2019-03-29T16:03:40.796Z,15.95
2019-03-29T16:06:09.359Z,16.20
2019-03-29T16:08:37.945Z,16.14
2019-03-29T16:11:09.054Z,16.15
2019-03-29T16:13:36.981Z,16.03
2019-03-29T16:16:05.546Z,16.11
2019-03-29T16:18:34.106Z,15.77
2019-03-29T16:21:02.927Z,15.97
2019-03-29T16:23:31.494Z,15.63
2019-03-29T16:26:00.090Z,15.52
2019-03-29T16:28:28.676Z,15.72
2019-03-29T16:30:57.244Z,15.63
2019-03-29T16:33:25.807Z,15.65
2019-03-29T16:35:54.348Z,15.55
2019-03-29T16:38:23.147Z,15.39
2019-03-29T16:40:51.702Z,15.17
2019-03-29T16:43:20.298Z,15.12
2019-03-29T16:45:48.861Z,15.25
2019-03-29T16:48:17.418Z,15.28
2019-03-29T16:50:45.990Z,15.24
2019-03-29T16:53:14.558Z,15.16
2019-03-29T16:55:43.236Z,15.05
2019-03-29T16:58:11.821Z,14.96
2019-03-29T17:00:40.368Z,15.05
2019-03-29T17:03:08.967Z,15.06
2019-03-29T17:05:37.505Z,14.82
2019-03-29T17:08:06.243Z,14.88
2019-03-29T17:10:34.800Z,14.74
2019-03-29T17:13:03.397Z,14.69
2019-03-29T17:15:31.922Z,14.54
2019-03-29T17:18:00.483Z,14.40
2019-03-29T17:20:29.095Z,14.22
2019-03-29T17:22:57.678Z,14.21
2019-03-29T17:25:26.250Z,14.12
2019-03-29T17:27:54.854Z,13.94
2019-03-29T17:30:59.807Z,13.89
2019-03-29T17:33:28.643Z,13.79
2019-03-29T17:35:57.274Z,13.78
2019-03-29T17:38:25.819Z,13.73
2019-03-29T17:40:54.450Z,13.73
2019-03-29T17:43:22.992Z,13.77
2019-03-29T17:45:51.842Z,13.65
2019-03-29T17:48:20.405Z,13.56
2019-03-29T17:50:50.706Z,13.48
2019-03-29T17:53:19.303Z,13.33
2019-03-29T17:55:47.896Z,13.29
2019-03-29T17:58:16.451Z,13.16
2019-03-29T18:00:45.048Z,13.11
2019-03-29T18:03:13.626Z,13.01
2019-03-29T18:05:42.239Z,12.94
2019-03-29T18:08:10.788Z,12.89
2019-03-29T18:10:39.387Z,12.85
2019-03-29T18:13:07.983Z,12.83
2019-03-29T18:15:36.544Z,12.71
2019-03-29T18:18:05.098Z,12.58
2019-03-29T18:20:33.710Z,12.57
2019-03-29T18:23:02.291Z,12.56
2019-03-29T18:25:30.863Z,12.58
2019-03-29T18:27:59.411Z,12.63
2019-03-29T18:30:39.021Z,12.62
2019-03-29T18:33:07.638Z,12.56
2019-03-29T18:35:36.500Z,12.52
2019-03-29T18:38:05.130Z,12.41
2019-03-29T18:40:33.694Z,12.41
2019-03-29T18:43:02.286Z,12.50
2019-03-29T18:45:30.827Z,12.47
2019-03-29T18:47:59.422Z,12.35
2019-03-29T18:50:28.014Z,12.31
2019-03-29T18:52:56.548Z,12.32
2019-03-29T18:55:25.133Z,12.22
2019-03-29T18:57:53.729Z,12.17
2019-03-29T19:00:32.743Z,12.09
2019-03-29T19:03:01.679Z,12.07
2019-03-29T19:05:30.561Z,12.03
2019-03-29T19:07:59.138Z,11.96
2019-03-29T19:10:27.677Z,11.94
2019-03-29T19:12:56.240Z,11.99
2019-03-29T19:15:24.883Z,11.99
2019-03-29T19:17:53.480Z,11.92
2019-03-29T19:20:27.827Z,11.87
2019-03-29T19:22:52.566Z,11.78
2019-03-29T19:25:21.140Z,11.65
2019-03-29T19:27:49.738Z,11.50
2019-03-29T19:30:18.933Z,11.46
2019-03-29T19:32:47.975Z,11.59
2019-03-29T19:35:16.858Z,11.48
2019-03-29T19:37:45.431Z,11.43
2019-03-29T19:40:14.229Z,11.42
2019-03-29T19:42:42.809Z,11.40
2019-03-29T19:45:12.278Z,11.37
2019-03-29T19:47:40.870Z,11.31
2019-03-29T19:50:10.177Z,11.26
2019-03-29T19:52:38.753Z,11.17
2019-03-29T19:55:07.625Z,11.13
2019-03-29T19:57:36.332Z,11.14
2019-03-29T20:00:06.610Z,11.09
2019-03-29T20:02:35.295Z,11.03
2019-03-29T20:05:04.388Z,10.90
2019-03-29T20:07:32.976Z,10.99
2019-03-29T20:10:01.590Z,10.94
2019-03-29T20:12:30.277Z,10.77
2019-03-29T20:14:58.878Z,10.73
2019-03-29T20:17:28.009Z,10.72
2019-03-29T20:19:56.674Z,10.78
2019-03-29T20:22:25.321Z,10.78
2019-03-29T20:24:53.929Z,10.75
2019-03-29T20:27:22.479Z,10.75
2019-03-29T20:29:51.049Z,10.69
2019-03-29T20:32:19.645Z,10.65
2019-03-29T20:34:48.282Z,10.61
2019-03-29T20:37:16.891Z,10.54
2019-03-29T20:39:45.483Z,10.54
2019-03-29T20:42:14.106Z,10.36
2019-03-29T20:44:42.670Z,10.35
2019-03-29T20:47:11.252Z,10.24
2019-03-29T20:49:39.812Z,10.25
2019-03-29T20:52:08.441Z,10.23
2019-03-29T20:54:37.037Z,10.12
2019-03-29T20:57:05.625Z,10.16
2019-03-29T20:59:34.215Z,10.18
2019-03-29T21:02:03.134Z,10.16
2019-03-29T21:04:31.785Z,10.15
2019-03-29T21:07:01.306Z,10.11
2019-03-29T21:09:29.945Z,10.03
2019-03-29T21:11:58.551Z,9.98
2019-03-29T21:14:27.172Z,9.80
2019-03-29T21:16:55.783Z,9.73
2019-03-29T21:19:25.234Z,9.76
2019-03-29T21:21:53.818Z,9.65
2019-03-29T21:24:22.508Z,9.72
2019-03-29T21:26:51.093Z,9.75
2019-03-29T21:29:19.699Z,9.76
2019-03-29T21:31:48.512Z,9.71
2019-03-29T21:34:17.097Z,9.56
2019-03-29T21:36:45.934Z,9.55
2019-03-29T21:39:14.798Z,9.51
2019-03-29T21:41:43.356Z,9.54
2019-03-29T21:44:11.923Z,9.54
2019-03-29T21:46:40.476Z,9.51
2019-03-29T21:49:09.053Z,9.48
2019-03-29T21:51:37.617Z,9.45
2019-03-29T21:54:06.398Z,9.34
2019-03-29T21:56:34.932Z,9.41
2019-03-29T21:59:03.510Z,9.35
2019-03-29T22:01:32.078Z,9.35
2019-03-29T22:04:00.650Z,9.43
2019-03-29T22:06:29.220Z,9.57
2019-03-29T22:08:57.785Z,9.56
2019-03-29T22:11:26.395Z,9.49
2019-03-29T22:13:56.296Z,9.35
2019-03-29T22:16:24.855Z,9.30
2019-03-29T22:18:53.437Z,9.31
2019-03-29T22:21:22.003Z,9.29
2019-03-29T22:23:50.578Z,9.30
2019-03-29T22:26:19.341Z,9.32
2019-03-29T22:28:47.908Z,9.40
2019-03-29T22:31:16.497Z,9.34
2019-03-29T22:33:45.119Z,9.23
2019-03-29T22:36:13.744Z,9.25
2019-03-29T22:38:42.336Z,9.28
2019-03-29T22:41:10.939Z,9.26
2019-03-29T22:43:39.553Z,9.28
2019-03-29T22:46:08.143Z,9.31
2019-03-29T22:48:36.705Z,9.25
2019-03-29T22:51:05.295Z,9.16
2019-03-29T22:53:33.867Z,9.17
2019-03-29T22:56:02.475Z,9.13
2019-03-29T22:58:31.059Z,9.04
2019-03-29T23:01:01.446Z,9.16
2019-03-29T23:03:30.050Z,9.26
2019-03-29T23:05:58.714Z,9.26
2019-03-29T23:08:27.295Z,9.17
2019-03-29T23:10:55.916Z,9.03
2019-03-29T23:13:24.477Z,8.97
2019-03-29T23:15:53.043Z,9.08
2019-03-29T23:18:21.606Z,9.11
2019-03-29T23:20:50.191Z,9.10
2019-03-29T23:23:18.742Z,8.93
2019-03-29T23:25:47.408Z,8.82
2019-03-29T23:28:15.953Z,8.90
2019-03-29T23:30:44.558Z,8.91
2019-03-29T23:33:13.156Z,8.95
2019-03-29T23:35:41.790Z,8.93
2019-03-29T23:38:10.422Z,8.78
2019-03-29T23:40:39.027Z,8.74
2019-03-29T23:43:07.542Z,8.78
2019-03-29T23:45:36.166Z,8.73
2019-03-29T23:48:04.707Z,8.63
2019-03-29T23:50:33.260Z,8.51
2019-03-29T23:53:01.839Z,8.55
2019-03-29T23:55:30.394Z,8.60
2019-03-29T23:57:58.999Z,8.52
